sensor_id;sensor_type;location;lat;lon;timestamp;temperature;humidity
28520;DHT22;15732;48.534;20.382;2023-04-06T00:00:03;2.90;93.80
28520;DHT22;15732;48.534;20.382;2023-04-06T00:02:35;2.90;94.00
28520;DHT22;15732;48.534;20.382;2023-04-06T00:05:06;2.90;94.10
28520;DHT22;15732;48.534;20.382;2023-04-06T00:07:34;2.90;93.90
28520;DHT22;15732;48.534;20.382;2023-04-06T00:10:03;2.90;94.00
28520;DHT22;15732;48.534;20.382;2023-04-06T00:12:30;2.90;94.10
28520;DHT22;15732;48.534;20.382;2023-04-06T00:15:01;2.90;94.10
28520;DHT22;15732;48.534;20.382;2023-04-06T00:17:31;2.90;93.90
28520;DHT22;15732;48.534;20.382;2023-04-06T00:20:02;2.90;94.00
28520;DHT22;15732;48.534;20.382;2023-04-06T00:22:29;2.90;94.30
28520;DHT22;15732;48.534;20.382;2023-04-06T00:24:57;2.90;94.10
28520;DHT22;15732;48.534;20.382;2023-04-06T00:27:24;2.80;94.40
28520;DHT22;15732;48.534;20.382;2023-04-06T00:29:52;2.80;94.40
28520;DHT22;15732;48.534;20.382;2023-04-06T00:32:23;2.80;94.30
28520;DHT22;15732;48.534;20.382;2023-04-06T00:34:51;2.80;94.50
28520;DHT22;15732;48.534;20.382;2023-04-06T00:37:18;2.80;94.40
28520;DHT22;15732;48.534;20.382;2023-04-06T00:39:45;2.80;94.30
28520;DHT22;15732;48.534;20.382;2023-04-06T00:42:13;2.80;94.30
28520;DHT22;15732;48.534;20.382;2023-04-06T00:44:41;2.80;94.30
28520;DHT22;15732;48.534;20.382;2023-04-06T00:47:12;2.80;94.50
28520;DHT22;15732;48.534;20.382;2023-04-06T00:49:40;2.80;94.40
28520;DHT22;15732;48.534;20.382;2023-04-06T00:52:07;2.80;94.50
28520;DHT22;15732;48.534;20.382;2023-04-06T00:54:35;2.80;94.80
28520;DHT22;15732;48.534;20.382;2023-04-06T00:57:06;2.80;94.60
28520;DHT22;15732;48.534;20.382;2023-04-06T00:59:37;2.80;95.00
28520;DHT22;15732;48.534;20.382;2023-04-06T01:02:04;2.80;94.80
28520;DHT22;15732;48.534;20.382;2023-04-06T01:04:32;2.80;94.90
28520;DHT22;15732;48.534;20.382;2023-04-06T01:07:03;2.90;94.80
28520;DHT22;15732;48.534;20.382;2023-04-06T01:09:31;2.80;95.00
28520;DHT22;15732;48.534;20.382;2023-04-06T01:12:02;2.80;95.30
28520;DHT22;15732;48.534;20.382;2023-04-06T01:14:30;2.70;95.40
28520;DHT22;15732;48.534;20.382;2023-04-06T01:16:58;2.80;95.40
28520;DHT22;15732;48.534;20.382;2023-04-06T01:19:29;2.70;95.60
28520;DHT22;15732;48.534;20.382;2023-04-06T01:21:57;2.60;95.50
28520;DHT22;15732;48.534;20.382;2023-04-06T01:24:28;2.70;95.70
28520;DHT22;15732;48.534;20.382;2023-04-06T01:26:55;2.70;95.70
28520;DHT22;15732;48.534;20.382;2023-04-06T01:29:23;2.60;95.60
28520;DHT22;15732;48.534;20.382;2023-04-06T01:31:54;2.60;95.60
28520;DHT22;15732;48.534;20.382;2023-04-06T01:34:25;2.60;95.70
28520;DHT22;15732;48.534;20.382;2023-04-06T01:36:52;2.60;95.90
28520;DHT22;15732;48.534;20.382;2023-04-06T01:39:19;2.50;95.90
28520;DHT22;15732;48.534;20.382;2023-04-06T01:41:46;2.50;96.20
28520;DHT22;15732;48.534;20.382;2023-04-06T01:44:17;2.50;96.70
28520;DHT22;15732;48.534;20.382;2023-04-06T01:46:45;2.30;96.80
28520;DHT22;15732;48.534;20.382;2023-04-06T01:49:13;2.40;96.90
28520;DHT22;15732;48.534;20.382;2023-04-06T01:51:40;2.30;97.00
28520;DHT22;15732;48.534;20.382;2023-04-06T01:54:08;2.40;97.00
28520;DHT22;15732;48.534;20.382;2023-04-06T01:56:35;2.40;97.00
28520;DHT22;15732;48.534;20.382;2023-04-06T01:59:02;2.50;97.00
28520;DHT22;15732;48.534;20.382;2023-04-06T02:01:30;2.60;97.40
28520;DHT22;15732;48.534;20.382;2023-04-06T02:03:57;2.70;96.90
28520;DHT22;15732;48.534;20.382;2023-04-06T02:06:28;2.70;97.00
28520;DHT22;15732;48.534;20.382;2023-04-06T02:09:00;2.80;97.10
28520;DHT22;15732;48.534;20.382;2023-04-06T02:11:28;2.90;97.30
28520;DHT22;15732;48.534;20.382;2023-04-06T02:13:59;2.90;97.10
28520;DHT22;15732;48.534;20.382;2023-04-06T02:16:27;3.00;97.30
28520;DHT22;15732;48.534;20.382;2023-04-06T02:18:55;3.10;97.50
28520;DHT22;15732;48.534;20.382;2023-04-06T02:21:22;3.10;97.50
28520;DHT22;15732;48.534;20.382;2023-04-06T02:23:50;3.10;97.10
28520;DHT22;15732;48.534;20.382;2023-04-06T02:26:21;3.10;97.20
28520;DHT22;15732;48.534;20.382;2023-04-06T02:28:48;3.20;97.20
28520;DHT22;15732;48.534;20.382;2023-04-06T02:31:16;3.20;97.30
28520;DHT22;15732;48.534;20.382;2023-04-06T02:33:43;3.20;97.30
28520;DHT22;15732;48.534;20.382;2023-04-06T02:36:11;3.20;97.20
28520;DHT22;15732;48.534;20.382;2023-04-06T02:38:38;3.20;97.50
28520;DHT22;15732;48.534;20.382;2023-04-06T02:41:06;3.20;97.60
28520;DHT22;15732;48.534;20.382;2023-04-06T02:43:37;3.30;97.50
28520;DHT22;15732;48.534;20.382;2023-04-06T02:46:04;3.30;97.80
28520;DHT22;15732;48.534;20.382;2023-04-06T02:48:35;3.30;97.80
28520;DHT22;15732;48.534;20.382;2023-04-06T02:51:04;3.30;97.70
28520;DHT22;15732;48.534;20.382;2023-04-06T02:53:35;3.30;97.70
28520;DHT22;15732;48.534;20.382;2023-04-06T02:56:07;3.40;98.00
28520;DHT22;15732;48.534;20.382;2023-04-06T02:58:34;3.40;98.00
28520;DHT22;15732;48.534;20.382;2023-04-06T03:01:02;3.40;98.10
28520;DHT22;15732;48.534;20.382;2023-04-06T03:03:29;3.40;98.10
28520;DHT22;15732;48.534;20.382;2023-04-06T03:05:57;3.30;98.10
28520;DHT22;15732;48.534;20.382;2023-04-06T03:08:26;3.40;98.30
28520;DHT22;15732;48.534;20.382;2023-04-06T03:10:53;3.30;98.30
28520;DHT22;15732;48.534;20.382;2023-04-06T03:13:21;3.30;98.40
28520;DHT22;15732;48.534;20.382;2023-04-06T03:15:48;3.20;98.80
28520;DHT22;15732;48.534;20.382;2023-04-06T03:18:23;3.00;99.40
28520;DHT22;15732;48.534;20.382;2023-04-06T03:20:50;2.80;99.30
28520;DHT22;15732;48.534;20.382;2023-04-06T03:23:20;2.80;99.70
28520;DHT22;15732;48.534;20.382;2023-04-06T03:25:47;2.70;99.20
28520;DHT22;15732;48.534;20.382;2023-04-06T03:28:15;2.70;99.40
28520;DHT22;15732;48.534;20.382;2023-04-06T03:30:45;2.70;99.90
28520;DHT22;15732;48.534;20.382;2023-04-06T03:33:17;2.70;99.90
28520;DHT22;15732;48.534;20.382;2023-04-06T03:35:44;2.80;99.90
28520;DHT22;15732;48.534;20.382;2023-04-06T03:38:11;2.90;99.90
28520;DHT22;15732;48.534;20.382;2023-04-06T03:40:42;2.90;99.90
28520;DHT22;15732;48.534;20.382;2023-04-06T03:43:10;2.90;99.70
28520;DHT22;15732;48.534;20.382;2023-04-06T03:45:37;2.90;99.60
28520;DHT22;15732;48.534;20.382;2023-04-06T03:48:05;2.90;99.50
28520;DHT22;15732;48.534;20.382;2023-04-06T03:50:33;3.00;99.50
28520;DHT22;15732;48.534;20.382;2023-04-06T03:53:01;3.00;99.40
28520;DHT22;15732;48.534;20.382;2023-04-06T03:55:32;3.00;99.50
28520;DHT22;15732;48.534;20.382;2023-04-06T03:57:59;3.00;99.20
28520;DHT22;15732;48.534;20.382;2023-04-06T04:00:27;3.00;99.10
28520;DHT22;15732;48.534;20.382;2023-04-06T04:02:54;3.10;99.10
28520;DHT22;15732;48.534;20.382;2023-04-06T04:05:22;3.10;99.10
28520;DHT22;15732;48.534;20.382;2023-04-06T04:07:52;3.10;99.10
28520;DHT22;15732;48.534;20.382;2023-04-06T04:10:19;3.10;99.30
28520;DHT22;15732;48.534;20.382;2023-04-06T04:12:46;3.10;99.40
28520;DHT22;15732;48.534;20.382;2023-04-06T04:15:17;3.10;99.30
28520;DHT22;15732;48.534;20.382;2023-04-06T04:17:45;3.10;99.30
28520;DHT22;15732;48.534;20.382;2023-04-06T04:20:17;3.10;99.60
28520;DHT22;15732;48.534;20.382;2023-04-06T04:22:48;3.20;99.10
28520;DHT22;15732;48.534;20.382;2023-04-06T04:25:16;3.10;99.10
28520;DHT22;15732;48.534;20.382;2023-04-06T04:27:43;3.10;99.60
28520;DHT22;15732;48.534;20.382;2023-04-06T04:30:12;3.10;99.80
28520;DHT22;15732;48.534;20.382;2023-04-06T04:32:39;3.00;99.90
28520;DHT22;15732;48.534;20.382;2023-04-06T04:35:08;3.00;99.90
28520;DHT22;15732;48.534;20.382;2023-04-06T04:37:35;3.00;99.80
28520;DHT22;15732;48.534;20.382;2023-04-06T04:40:02;3.00;99.90
28520;DHT22;15732;48.534;20.382;2023-04-06T04:42:30;2.90;99.90
28520;DHT22;15732;48.534;20.382;2023-04-06T04:45:01;2.90;99.90
28520;DHT22;15732;48.534;20.382;2023-04-06T04:47:28;2.90;99.90
28520;DHT22;15732;48.534;20.382;2023-04-06T04:49:55;2.90;99.90
28520;DHT22;15732;48.534;20.382;2023-04-06T04:52:26;2.90;99.90
28520;DHT22;15732;48.534;20.382;2023-04-06T04:54:54;2.90;99.90
28520;DHT22;15732;48.534;20.382;2023-04-06T04:57:25;3.00;99.90
28520;DHT22;15732;48.534;20.382;2023-04-06T04:59:53;3.10;99.90
28520;DHT22;15732;48.534;20.382;2023-04-06T05:02:20;3.10;99.60
28520;DHT22;15732;48.534;20.382;2023-04-06T05:04:47;3.20;99.90
28520;DHT22;15732;48.534;20.382;2023-04-06T05:07:19;3.30;99.90
28520;DHT22;15732;48.534;20.382;2023-04-06T05:09:47;3.30;99.80
28520;DHT22;15732;48.534;20.382;2023-04-06T05:12:14;3.40;99.80
28520;DHT22;15732;48.534;20.382;2023-04-06T05:14:42;3.50;99.90
28520;DHT22;15732;48.534;20.382;2023-04-06T05:17:13;3.50;99.00
28520;DHT22;15732;48.534;20.382;2023-04-06T05:19:41;3.50;99.70
28520;DHT22;15732;48.534;20.382;2023-04-06T05:22:13;3.50;99.90
28520;DHT22;15732;48.534;20.382;2023-04-06T05:24:43;3.50;99.90
28520;DHT22;15732;48.534;20.382;2023-04-06T05:27:10;3.60;99.90
28520;DHT22;15732;48.534;20.382;2023-04-06T05:29:37;3.60;99.90
28520;DHT22;15732;48.534;20.382;2023-04-06T05:32:05;3.60;99.90
28520;DHT22;15732;48.534;20.382;2023-04-06T05:34:37;3.70;99.90
28520;DHT22;15732;48.534;20.382;2023-04-06T05:37:04;3.70;99.80
28520;DHT22;15732;48.534;20.382;2023-04-06T05:39:35;3.80;99.30
28520;DHT22;15732;48.534;20.382;2023-04-06T05:42:04;3.80;98.90
28520;DHT22;15732;48.534;20.382;2023-04-06T05:44:32;3.80;99.20
28520;DHT22;15732;48.534;20.382;2023-04-06T05:47:00;3.80;99.00
28520;DHT22;15732;48.534;20.382;2023-04-06T05:49:27;3.90;99.10
28520;DHT22;15732;48.534;20.382;2023-04-06T05:51:55;3.90;99.10
28520;DHT22;15732;48.534;20.382;2023-04-06T05:54:22;3.90;98.00
28520;DHT22;15732;48.534;20.382;2023-04-06T05:56:50;3.90;99.20
28520;DHT22;15732;48.534;20.382;2023-04-06T05:59:17;3.90;98.20
28520;DHT22;15732;48.534;20.382;2023-04-06T06:01:45;3.90;98.00
28520;DHT22;15732;48.534;20.382;2023-04-06T06:04:16;4.00;98.80
28520;DHT22;15732;48.534;20.382;2023-04-06T06:06:43;3.90;98.70
28520;DHT22;15732;48.534;20.382;2023-04-06T06:09:15;4.00;98.90
28520;DHT22;15732;48.534;20.382;2023-04-06T06:11:42;4.10;98.90
28520;DHT22;15732;48.534;20.382;2023-04-06T06:14:14;4.10;99.20
28520;DHT22;15732;48.534;20.382;2023-04-06T06:16:45;4.10;99.10
28520;DHT22;15732;48.534;20.382;2023-04-06T06:19:16;4.10;98.80
28520;DHT22;15732;48.534;20.382;2023-04-06T06:21:44;4.10;98.80
28520;DHT22;15732;48.534;20.382;2023-04-06T06:24:15;4.10;98.50
28520;DHT22;15732;48.534;20.382;2023-04-06T06:26:42;4.10;98.40
28520;DHT22;15732;48.534;20.382;2023-04-06T06:29:09;4.10;98.50
28520;DHT22;15732;48.534;20.382;2023-04-06T06:31:40;4.10;98.60
28520;DHT22;15732;48.534;20.382;2023-04-06T06:34:12;4.10;98.50
28520;DHT22;15732;48.534;20.382;2023-04-06T06:36:39;4.10;98.60
28520;DHT22;15732;48.534;20.382;2023-04-06T06:39:07;4.10;98.50
28520;DHT22;15732;48.534;20.382;2023-04-06T06:41:34;4.20;98.70
28520;DHT22;15732;48.534;20.382;2023-04-06T06:44:05;4.10;97.60
28520;DHT22;15732;48.534;20.382;2023-04-06T06:46:33;4.10;98.30
28520;DHT22;15732;48.534;20.382;2023-04-06T06:49:00;4.10;97.90
28520;DHT22;15732;48.534;20.382;2023-04-06T06:51:32;4.10;98.20
28520;DHT22;15732;48.534;20.382;2023-04-06T06:53:59;4.10;98.70
28520;DHT22;15732;48.534;20.382;2023-04-06T06:56:26;4.10;98.90
28520;DHT22;15732;48.534;20.382;2023-04-06T06:58:54;4.20;98.40
28520;DHT22;15732;48.534;20.382;2023-04-06T07:01:26;4.20;99.00
28520;DHT22;15732;48.534;20.382;2023-04-06T07:03:53;4.20;98.80
28520;DHT22;15732;48.534;20.382;2023-04-06T07:06:20;4.20;98.90
28520;DHT22;15732;48.534;20.382;2023-04-06T07:08:48;4.20;98.70
28520;DHT22;15732;48.534;20.382;2023-04-06T07:11:15;4.10;98.70
28520;DHT22;15732;48.534;20.382;2023-04-06T07:13:42;4.20;98.90
28520;DHT22;15732;48.534;20.382;2023-04-06T07:16:14;4.20;98.90
28520;DHT22;15732;48.534;20.382;2023-04-06T07:18:45;4.10;98.30
28520;DHT22;15732;48.534;20.382;2023-04-06T07:21:16;4.20;98.70
28520;DHT22;15732;48.534;20.382;2023-04-06T07:23:44;4.20;99.50
28520;DHT22;15732;48.534;20.382;2023-04-06T07:26:17;4.30;99.50
28520;DHT22;15732;48.534;20.382;2023-04-06T07:28:44;4.20;99.10
28520;DHT22;15732;48.534;20.382;2023-04-06T07:31:11;4.20;99.90
28520;DHT22;15732;48.534;20.382;2023-04-06T07:33:39;4.20;99.90
28520;DHT22;15732;48.534;20.382;2023-04-06T07:36:06;4.10;99.90
28520;DHT22;15732;48.534;20.382;2023-04-06T07:38:34;4.10;99.90
28520;DHT22;15732;48.534;20.382;2023-04-06T07:41:02;4.00;99.90
28520;DHT22;15732;48.534;20.382;2023-04-06T07:43:30;4.00;99.90
28520;DHT22;15732;48.534;20.382;2023-04-06T07:45:57;3.90;99.90
28520;DHT22;15732;48.534;20.382;2023-04-06T07:48:26;3.90;99.90
28520;DHT22;15732;48.534;20.382;2023-04-06T07:51:04;3.80;99.90
28520;DHT22;15732;48.534;20.382;2023-04-06T07:53:31;3.80;99.90
28520;DHT22;15732;48.534;20.382;2023-04-06T07:55:59;3.80;99.90
28520;DHT22;15732;48.534;20.382;2023-04-06T07:58:30;3.80;99.90
28520;DHT22;15732;48.534;20.382;2023-04-06T08:01:01;3.70;99.90
28520;DHT22;15732;48.534;20.382;2023-04-06T08:03:29;3.80;99.90
28520;DHT22;15732;48.534;20.382;2023-04-06T08:05:56;3.90;99.90
28520;DHT22;15732;48.534;20.382;2023-04-06T08:08:28;3.70;99.90
28520;DHT22;15732;48.534;20.382;2023-04-06T08:10:56;3.80;99.90
28520;DHT22;15732;48.534;20.382;2023-04-06T08:13:23;3.90;99.90
28520;DHT22;15732;48.534;20.382;2023-04-06T08:15:55;3.90;99.90
28520;DHT22;15732;48.534;20.382;2023-04-06T08:18:23;4.00;99.90
28520;DHT22;15732;48.534;20.382;2023-04-06T08:20:54;4.00;99.90
28520;DHT22;15732;48.534;20.382;2023-04-06T08:23:22;4.10;99.90
28520;DHT22;15732;48.534;20.382;2023-04-06T08:25:49;4.10;99.90
28520;DHT22;15732;48.534;20.382;2023-04-06T08:28:19;4.20;99.90
28520;DHT22;15732;48.534;20.382;2023-04-06T08:30:47;4.20;99.90
28520;DHT22;15732;48.534;20.382;2023-04-06T08:33:14;4.20;99.90
28520;DHT22;15732;48.534;20.382;2023-04-06T08:35:45;4.20;99.90
28520;DHT22;15732;48.534;20.382;2023-04-06T08:38:13;4.20;99.90
28520;DHT22;15732;48.534;20.382;2023-04-06T08:40:40;4.30;99.90
28520;DHT22;15732;48.534;20.382;2023-04-06T08:43:11;4.30;99.90
28520;DHT22;15732;48.534;20.382;2023-04-06T08:45:40;4.30;99.90
28520;DHT22;15732;48.534;20.382;2023-04-06T08:48:11;4.40;99.90
28520;DHT22;15732;48.534;20.382;2023-04-06T08:50:39;4.30;99.90
28520;DHT22;15732;48.534;20.382;2023-04-06T08:53:06;4.30;99.90
28520;DHT22;15732;48.534;20.382;2023-04-06T08:55:35;4.30;99.90
28520;DHT22;15732;48.534;20.382;2023-04-06T08:58:06;4.30;99.90
28520;DHT22;15732;48.534;20.382;2023-04-06T09:00:39;4.30;99.90
28520;DHT22;15732;48.534;20.382;2023-04-06T09:03:07;4.30;99.90
28520;DHT22;15732;48.534;20.382;2023-04-06T09:05:35;4.20;99.90
28520;DHT22;15732;48.534;20.382;2023-04-06T09:08:06;4.20;99.90
28520;DHT22;15732;48.534;20.382;2023-04-06T09:10:41;4.10;99.90
28520;DHT22;15732;48.534;20.382;2023-04-06T09:13:09;4.10;99.90
28520;DHT22;15732;48.534;20.382;2023-04-06T09:15:37;4.10;99.90
28520;DHT22;15732;48.534;20.382;2023-04-06T09:18:04;4.20;99.90
28520;DHT22;15732;48.534;20.382;2023-04-06T09:20:32;4.10;99.90
28520;DHT22;15732;48.534;20.382;2023-04-06T09:22:59;3.90;99.90
28520;DHT22;15732;48.534;20.382;2023-04-06T09:25:26;4.00;99.90
28520;DHT22;15732;48.534;20.382;2023-04-06T09:28:01;3.80;99.90
28520;DHT22;15732;48.534;20.382;2023-04-06T09:30:28;3.90;99.90
28520;DHT22;15732;48.534;20.382;2023-04-06T09:32:59;3.90;99.90
28520;DHT22;15732;48.534;20.382;2023-04-06T09:35:30;3.90;99.90
28520;DHT22;15732;48.534;20.382;2023-04-06T09:37:59;3.80;99.90
28520;DHT22;15732;48.534;20.382;2023-04-06T09:40:30;3.70;99.90
28520;DHT22;15732;48.534;20.382;2023-04-06T09:42:57;3.40;99.90
28520;DHT22;15732;48.534;20.382;2023-04-06T09:45:27;3.50;99.90
28520;DHT22;15732;48.534;20.382;2023-04-06T09:47:56;3.50;99.90
28520;DHT22;15732;48.534;20.382;2023-04-06T09:50:25;3.50;99.90
28520;DHT22;15732;48.534;20.382;2023-04-06T09:52:54;3.60;99.90
28520;DHT22;15732;48.534;20.382;2023-04-06T09:55:28;3.60;99.90
28520;DHT22;15732;48.534;20.382;2023-04-06T09:58:05;3.70;99.90
28520;DHT22;15732;48.534;20.382;2023-04-06T10:00:34;3.70;99.90
28520;DHT22;15732;48.534;20.382;2023-04-06T10:03:14;3.80;99.90
28520;DHT22;15732;48.534;20.382;2023-04-06T10:05:54;3.80;99.90
28520;DHT22;15732;48.534;20.382;2023-04-06T10:08:28;3.80;99.90
28520;DHT22;15732;48.534;20.382;2023-04-06T10:10:56;3.70;99.90
28520;DHT22;15732;48.534;20.382;2023-04-06T10:13:24;3.80;99.90
28520;DHT22;15732;48.534;20.382;2023-04-06T10:15:55;3.80;99.90
28520;DHT22;15732;48.534;20.382;2023-04-06T10:18:23;3.80;99.90
28520;DHT22;15732;48.534;20.382;2023-04-06T10:21:00;3.80;99.90
28520;DHT22;15732;48.534;20.382;2023-04-06T10:26:02;3.90;99.90
28520;DHT22;15732;48.534;20.382;2023-04-06T10:28:33;3.80;99.90
28520;DHT22;15732;48.534;20.382;2023-04-06T10:31:05;3.80;99.90
28520;DHT22;15732;48.534;20.382;2023-04-06T10:33:33;3.80;99.90
28520;DHT22;15732;48.534;20.382;2023-04-06T10:36:33;3.80;99.90
28520;DHT22;15732;48.534;20.382;2023-04-06T10:39:02;3.80;99.90
28520;DHT22;15732;48.534;20.382;2023-04-06T10:41:34;3.80;99.90
28520;DHT22;15732;48.534;20.382;2023-04-06T10:44:05;3.80;99.90
28520;DHT22;15732;48.534;20.382;2023-04-06T10:46:33;3.80;99.90
28520;DHT22;15732;48.534;20.382;2023-04-06T10:49:11;3.80;99.90
28520;DHT22;15732;48.534;20.382;2023-04-06T10:51:42;3.80;99.90
28520;DHT22;15732;48.534;20.382;2023-04-06T10:54:13;3.80;99.90
28520;DHT22;15732;48.534;20.382;2023-04-06T10:56:41;3.80;99.90
28520;DHT22;15732;48.534;20.382;2023-04-06T10:59:11;3.90;99.90
28520;DHT22;15732;48.534;20.382;2023-04-06T11:01:39;3.90;99.90
28520;DHT22;15732;48.534;20.382;2023-04-06T11:04:10;3.90;99.90
28520;DHT22;15732;48.534;20.382;2023-04-06T11:06:42;3.90;99.90
28520;DHT22;15732;48.534;20.382;2023-04-06T11:09:30;3.90;99.90
28520;DHT22;15732;48.534;20.382;2023-04-06T11:11:58;3.90;99.90
28520;DHT22;15732;48.534;20.382;2023-04-06T11:14:25;3.90;99.90
28520;DHT22;15732;48.534;20.382;2023-04-06T11:16:53;3.90;99.90
28520;DHT22;15732;48.534;20.382;2023-04-06T11:19:20;3.90;99.90
28520;DHT22;15732;48.534;20.382;2023-04-06T11:21:48;4.00;99.90
28520;DHT22;15732;48.534;20.382;2023-04-06T11:24:23;4.00;99.90
28520;DHT22;15732;48.534;20.382;2023-04-06T11:26:55;4.00;99.90
28520;DHT22;15732;48.534;20.382;2023-04-06T11:31:54;4.00;99.90
28520;DHT22;15732;48.534;20.382;2023-04-06T11:34:22;4.00;99.90
28520;DHT22;15732;48.534;20.382;2023-04-06T11:36:55;4.00;99.90
28520;DHT22;15732;48.534;20.382;2023-04-06T11:39:27;4.00;99.90
28520;DHT22;15732;48.534;20.382;2023-04-06T11:42:01;4.00;99.90
28520;DHT22;15732;48.534;20.382;2023-04-06T11:44:33;4.00;99.90
28520;DHT22;15732;48.534;20.382;2023-04-06T11:47:06;4.00;99.90
28520;DHT22;15732;48.534;20.382;2023-04-06T11:49:37;4.00;99.90
28520;DHT22;15732;48.534;20.382;2023-04-06T11:54:48;4.10;99.90
28520;DHT22;15732;48.534;20.382;2023-04-06T11:57:15;4.10;99.90
28520;DHT22;15732;48.534;20.382;2023-04-06T11:59:43;4.00;99.90
28520;DHT22;15732;48.534;20.382;2023-04-06T12:02:10;4.00;99.90
28520;DHT22;15732;48.534;20.382;2023-04-06T12:04:38;4.10;99.90
28520;DHT22;15732;48.534;20.382;2023-04-06T12:07:04;4.00;99.90
28520;DHT22;15732;48.534;20.382;2023-04-06T12:09:35;4.00;99.90
28520;DHT22;15732;48.534;20.382;2023-04-06T12:12:06;4.10;99.90
28520;DHT22;15732;48.534;20.382;2023-04-06T12:14:34;4.00;99.90
28520;DHT22;15732;48.534;20.382;2023-04-06T12:17:05;4.10;99.90
28520;DHT22;15732;48.534;20.382;2023-04-06T12:19:32;4.10;99.90
28520;DHT22;15732;48.534;20.382;2023-04-06T12:22:03;4.10;99.90
28520;DHT22;15732;48.534;20.382;2023-04-06T12:24:30;4.10;99.90
28520;DHT22;15732;48.534;20.382;2023-04-06T12:26:58;4.10;99.90
28520;DHT22;15732;48.534;20.382;2023-04-06T12:29:26;4.20;99.90
28520;DHT22;15732;48.534;20.382;2023-04-06T12:31:57;4.20;99.90
28520;DHT22;15732;48.534;20.382;2023-04-06T12:34:26;4.20;99.90
28520;DHT22;15732;48.534;20.382;2023-04-06T12:36:57;4.20;99.90
28520;DHT22;15732;48.534;20.382;2023-04-06T12:39:24;4.20;99.90
28520;DHT22;15732;48.534;20.382;2023-04-06T12:41:56;4.30;99.90
28520;DHT22;15732;48.534;20.382;2023-04-06T12:44:23;4.30;99.90
28520;DHT22;15732;48.534;20.382;2023-04-06T12:46:54;4.30;99.90
28520;DHT22;15732;48.534;20.382;2023-04-06T12:49:26;4.30;99.90
28520;DHT22;15732;48.534;20.382;2023-04-06T12:51:57;4.30;99.90
28520;DHT22;15732;48.534;20.382;2023-04-06T12:54:25;4.30;99.90
28520;DHT22;15732;48.534;20.382;2023-04-06T12:56:53;4.30;99.90
28520;DHT22;15732;48.534;20.382;2023-04-06T12:59:22;4.40;99.90
28520;DHT22;15732;48.534;20.382;2023-04-06T13:01:51;4.40;99.90
28520;DHT22;15732;48.534;20.382;2023-04-06T13:04:19;4.40;99.90
28520;DHT22;15732;48.534;20.382;2023-04-06T13:06:50;4.40;99.90
28520;DHT22;15732;48.534;20.382;2023-04-06T13:09:17;4.40;99.90
28520;DHT22;15732;48.534;20.382;2023-04-06T13:11:45;4.40;99.90
28520;DHT22;15732;48.534;20.382;2023-04-06T13:14:13;4.40;99.90
28520;DHT22;15732;48.534;20.382;2023-04-06T13:16:40;4.40;99.90
28520;DHT22;15732;48.534;20.382;2023-04-06T13:19:11;4.40;99.90
28520;DHT22;15732;48.534;20.382;2023-04-06T13:21:39;4.30;99.90
28520;DHT22;15732;48.534;20.382;2023-04-06T13:24:06;4.30;99.90
28520;DHT22;15732;48.534;20.382;2023-04-06T13:26:38;4.30;99.90
28520;DHT22;15732;48.534;20.382;2023-04-06T13:29:10;4.20;99.90
28520;DHT22;15732;48.534;20.382;2023-04-06T13:31:37;4.20;99.90
28520;DHT22;15732;48.534;20.382;2023-04-06T13:34:07;4.20;99.90
28520;DHT22;15732;48.534;20.382;2023-04-06T13:36:39;4.20;99.90
28520;DHT22;15732;48.534;20.382;2023-04-06T13:39:07;4.20;99.90
28520;DHT22;15732;48.534;20.382;2023-04-06T13:41:35;4.20;99.90
28520;DHT22;15732;48.534;20.382;2023-04-06T13:44:02;4.20;99.90
28520;DHT22;15732;48.534;20.382;2023-04-06T13:46:30;4.10;99.90
28520;DHT22;15732;48.534;20.382;2023-04-06T13:49:01;4.10;99.90
28520;DHT22;15732;48.534;20.382;2023-04-06T13:51:29;4.10;99.90
28520;DHT22;15732;48.534;20.382;2023-04-06T13:53:57;4.10;99.90
28520;DHT22;15732;48.534;20.382;2023-04-06T13:56:24;4.10;99.90
28520;DHT22;15732;48.534;20.382;2023-04-06T13:58:54;4.10;99.90
28520;DHT22;15732;48.534;20.382;2023-04-06T14:01:22;4.10;99.90
28520;DHT22;15732;48.534;20.382;2023-04-06T14:03:54;4.10;99.90
28520;DHT22;15732;48.534;20.382;2023-04-06T14:06:26;4.10;99.90
28520;DHT22;15732;48.534;20.382;2023-04-06T14:08:53;4.10;99.90
28520;DHT22;15732;48.534;20.382;2023-04-06T14:11:21;4.10;99.90
28520;DHT22;15732;48.534;20.382;2023-04-06T14:13:48;4.10;99.90
28520;DHT22;15732;48.534;20.382;2023-04-06T14:16:21;4.10;99.90
28520;DHT22;15732;48.534;20.382;2023-04-06T14:18:49;4.10;99.90
28520;DHT22;15732;48.534;20.382;2023-04-06T14:21:17;4.10;99.90
28520;DHT22;15732;48.534;20.382;2023-04-06T14:23:49;4.10;99.90
28520;DHT22;15732;48.534;20.382;2023-04-06T14:26:17;4.10;99.90
28520;DHT22;15732;48.534;20.382;2023-04-06T14:28:45;4.10;99.90
28520;DHT22;15732;48.534;20.382;2023-04-06T14:31:15;4.10;99.90
28520;DHT22;15732;48.534;20.382;2023-04-06T14:33:47;4.10;99.90
28520;DHT22;15732;48.534;20.382;2023-04-06T14:36:14;4.10;99.90
28520;DHT22;15732;48.534;20.382;2023-04-06T14:38:45;4.00;99.90
28520;DHT22;15732;48.534;20.382;2023-04-06T14:41:16;4.00;99.90
28520;DHT22;15732;48.534;20.382;2023-04-06T14:43:44;4.00;99.90
28520;DHT22;15732;48.534;20.382;2023-04-06T14:46:11;4.00;99.90
28520;DHT22;15732;48.534;20.382;2023-04-06T14:48:38;4.00;99.90
28520;DHT22;15732;48.534;20.382;2023-04-06T14:51:06;4.00;99.90
28520;DHT22;15732;48.534;20.382;2023-04-06T14:53:34;4.00;99.90
28520;DHT22;15732;48.534;20.382;2023-04-06T14:56:01;4.00;99.90
28520;DHT22;15732;48.534;20.382;2023-04-06T14:58:32;4.00;99.90
28520;DHT22;15732;48.534;20.382;2023-04-06T15:01:00;4.00;99.90
28520;DHT22;15732;48.534;20.382;2023-04-06T15:03:28;4.00;99.90
28520;DHT22;15732;48.534;20.382;2023-04-06T15:05:59;4.00;99.90
28520;DHT22;15732;48.534;20.382;2023-04-06T15:08:31;4.00;99.90
28520;DHT22;15732;48.534;20.382;2023-04-06T15:10:59;4.00;99.90
28520;DHT22;15732;48.534;20.382;2023-04-06T15:13:26;4.00;99.90
28520;DHT22;15732;48.534;20.382;2023-04-06T15:15:58;4.00;99.90
28520;DHT22;15732;48.534;20.382;2023-04-06T15:18:25;4.10;99.90
28520;DHT22;15732;48.534;20.382;2023-04-06T15:20:53;4.00;99.90
28520;DHT22;15732;48.534;20.382;2023-04-06T15:23:20;4.10;99.90
28520;DHT22;15732;48.534;20.382;2023-04-06T15:25:47;4.10;99.90
28520;DHT22;15732;48.534;20.382;2023-04-06T15:28:15;4.10;99.90
28520;DHT22;15732;48.534;20.382;2023-04-06T15:30:42;4.10;99.90
28520;DHT22;15732;48.534;20.382;2023-04-06T15:33:09;4.10;99.90
28520;DHT22;15732;48.534;20.382;2023-04-06T15:35:36;4.10;99.90
28520;DHT22;15732;48.534;20.382;2023-04-06T15:38:09;4.10;99.90
28520;DHT22;15732;48.534;20.382;2023-04-06T15:40:43;4.10;99.90
28520;DHT22;15732;48.534;20.382;2023-04-06T15:43:11;4.00;99.90
28520;DHT22;15732;48.534;20.382;2023-04-06T15:45:43;4.00;99.90
28520;DHT22;15732;48.534;20.382;2023-04-06T15:48:11;4.10;99.90